createdAt,value
2017-06-14T00:02:05.259Z,64.20
2017-06-14T00:04:32.854Z,64.40
2017-06-14T00:07:00.367Z,65.00
2017-06-14T00:09:27.872Z,65.40
2017-06-14T00:11:55.423Z,65.40
2017-06-14T00:14:22.698Z,65.00
2017-06-14T00:16:50.203Z,64.80
2017-06-14T00:19:17.751Z,65.90
2017-06-14T00:21:45.251Z,66.40
2017-06-14T00:24:12.775Z,67.40
2017-06-14T00:26:40.362Z,66.50
2017-06-14T00:29:07.862Z,66.90
2017-06-14T00:31:35.367Z,68.30
2017-06-14T00:34:02.943Z,67.50
2017-06-14T00:36:30.443Z,68.30
2017-06-14T00:38:57.946Z,67.40
2017-06-14T00:41:25.571Z,67.50
2017-06-14T00:43:53.079Z,67.60
2017-06-14T00:46:20.582Z,67.70
2017-06-14T00:48:48.131Z,67.30
2017-06-14T00:51:15.631Z,67.50
2017-06-14T00:53:43.219Z,67.70
2017-06-14T00:56:10.800Z,68.50
2017-06-14T00:58:38.483Z,69.50
2017-06-14T01:01:06.004Z,69.40
2017-06-14T01:03:33.587Z,70.30
2017-06-14T01:06:01.068Z,70.60
2017-06-14T01:08:28.560Z,71.40
2017-06-14T01:10:56.092Z,72.00
2017-06-14T01:13:23.607Z,72.40
2017-06-14T01:15:51.139Z,72.90
2017-06-14T01:18:18.668Z,72.30
2017-06-14T01:20:46.152Z,73.20
2017-06-14T01:23:13.630Z,73.40
2017-06-14T01:25:41.192Z,74.20
2017-06-14T01:28:08.676Z,73.50
2017-06-14T01:30:36.155Z,74.20
2017-06-14T01:33:03.700Z,74.30
2017-06-14T01:35:31.234Z,74.50
2017-06-14T01:37:58.785Z,74.60
2017-06-14T01:40:26.310Z,74.60
2017-06-14T01:42:53.828Z,74.80
2017-06-14T01:45:21.312Z,75.00
2017-06-14T01:47:48.926Z,75.00
2017-06-14T01:50:16.403Z,74.70
2017-06-14T01:52:43.888Z,75.40
2017-06-14T01:55:11.561Z,75.40
2017-06-14T01:57:39.052Z,74.90
2017-06-14T02:00:06.538Z,75.00
2017-06-14T02:02:34.268Z,75.50
2017-06-14T02:05:01.747Z,75.60
2017-06-14T02:07:29.247Z,75.00
2017-06-14T02:09:56.851Z,75.30
2017-06-14T02:12:24.328Z,75.10
2017-06-14T02:14:51.812Z,75.30
2017-06-14T02:17:19.433Z,75.90
2017-06-14T02:19:46.912Z,75.40
2017-06-14T02:22:14.387Z,75.70
2017-06-14T02:24:41.909Z,76.70
2017-06-14T02:27:09.388Z,76.30
2017-06-14T02:29:36.870Z,77.10
2017-06-14T02:32:04.456Z,77.00
2017-06-14T02:34:31.936Z,77.00
2017-06-14T02:36:59.422Z,77.10
2017-06-14T02:39:26.957Z,77.60
2017-06-14T02:41:54.432Z,77.10
2017-06-14T02:44:21.912Z,77.40
2017-06-14T02:46:49.455Z,79.20
2017-06-14T02:49:17.109Z,78.50
2017-06-14T02:51:44.672Z,78.40
2017-06-14T02:54:12.265Z,77.30
2017-06-14T02:56:39.779Z,77.20
2017-06-14T02:59:07.754Z,77.20
2017-06-14T03:01:35.952Z,77.50
2017-06-14T03:04:03.429Z,77.80
2017-06-14T03:06:42.657Z,78.30
2017-06-14T03:09:10.327Z,79.20
2017-06-14T03:11:37.806Z,80.00
2017-06-14T03:14:05.404Z,80.20
2017-06-14T03:16:32.933Z,80.50
2017-06-14T03:19:00.423Z,81.00
2017-06-14T03:21:27.963Z,81.40
2017-06-14T03:23:55.443Z,81.40
2017-06-14T03:26:22.936Z,81.70
2017-06-14T03:28:50.484Z,81.50
2017-06-14T03:31:17.984Z,81.80
2017-06-14T03:33:45.471Z,81.50
2017-06-14T03:36:13.027Z,80.80
2017-06-14T03:38:40.572Z,80.90
2017-06-14T03:41:08.055Z,81.30
2017-06-14T03:43:35.587Z,81.20
2017-06-14T03:46:03.076Z,81.20
2017-06-14T03:48:30.567Z,80.60
2017-06-14T03:50:58.179Z,81.00
2017-06-14T03:53:25.659Z,80.10
2017-06-14T03:55:53.142Z,79.20
2017-06-14T03:58:20.675Z,79.20
2017-06-14T04:00:48.163Z,79.20
2017-06-14T04:03:15.646Z,78.60
2017-06-14T04:05:43.169Z,76.60
2017-06-14T04:08:10.656Z,73.80
2017-06-14T04:10:38.159Z,70.30
2017-06-14T04:13:06.037Z,68.00
2017-06-14T04:15:33.545Z,65.80
2017-06-14T04:18:01.021Z,64.00
2017-06-14T04:20:28.565Z,60.30
2017-06-14T04:22:56.040Z,59.60
2017-06-14T04:25:29.549Z,58.60
2017-06-14T04:27:57.095Z,57.40
2017-06-14T04:30:24.595Z,57.60
2017-06-14T04:32:52.131Z,57.60
2017-06-14T04:35:19.612Z,58.00
2017-06-14T04:37:47.092Z,57.90
2017-06-14T04:40:14.708Z,58.80
2017-06-14T04:42:42.213Z,59.10
2017-06-14T04:45:09.695Z,59.80
2017-06-14T04:47:37.226Z,60.60
2017-06-14T04:50:04.713Z,62.60
2017-06-14T04:52:32.204Z,64.00
2017-06-14T04:54:59.742Z,64.40
2017-06-14T04:57:27.228Z,64.60
2017-06-14T04:59:54.715Z,65.40
2017-06-14T05:02:22.267Z,65.40
2017-06-14T05:04:49.758Z,65.80
2017-06-14T05:07:17.235Z,65.40
2017-06-14T05:09:44.784Z,64.60
2017-06-14T05:12:12.268Z,63.80
2017-06-14T05:14:39.763Z,63.10
2017-06-14T05:17:07.367Z,63.00
2017-06-14T05:19:35.739Z,63.60
2017-06-14T05:22:03.239Z,64.10
2017-06-14T05:24:30.725Z,63.00
2017-06-14T05:26:58.355Z,61.70
2017-06-14T05:29:25.879Z,59.90
2017-06-14T05:31:53.403Z,59.30
2017-06-14T05:34:20.939Z,59.30
2017-06-14T05:36:48.428Z,58.30
2017-06-14T05:39:15.921Z,57.80
2017-06-14T05:41:43.518Z,57.80
2017-06-14T05:44:11.053Z,56.50
2017-06-14T05:46:38.796Z,56.30
2017-06-14T05:49:06.377Z,56.50
2017-06-14T05:51:33.867Z,56.00
2017-06-14T05:54:01.362Z,56.40
2017-06-14T05:56:28.904Z,56.80
2017-06-14T05:58:56.391Z,56.70
2017-06-14T06:01:24.408Z,56.00
2017-06-14T06:03:52.007Z,54.40
2017-06-14T06:06:20.270Z,53.50
2017-06-14T06:08:48.532Z,53.40
2017-06-14T06:11:16.892Z,52.20
2017-06-14T06:13:44.406Z,52.90
2017-06-14T06:16:11.911Z,52.60
2017-06-14T06:18:39.607Z,51.10
2017-06-14T06:21:07.195Z,50.10
2017-06-14T06:23:34.744Z,49.20
2017-06-14T06:26:02.399Z,47.90
2017-06-14T06:28:30.662Z,46.90
2017-06-14T06:30:58.187Z,46.80
2017-06-14T06:33:25.723Z,46.70
2017-06-14T06:35:53.280Z,47.40
2017-06-14T06:38:20.797Z,45.30
2017-06-14T06:40:48.320Z,45.90
2017-06-14T06:43:15.884Z,45.10
2017-06-14T06:45:43.400Z,46.10
2017-06-14T06:48:10.938Z,45.50
2017-06-14T06:50:38.529Z,44.10
2017-06-14T06:53:06.039Z,43.10
2017-06-14T06:55:33.547Z,42.00
2017-06-14T06:58:01.083Z,42.10
2017-06-14T07:00:28.595Z,41.40
2017-06-14T07:02:56.102Z,43.20
2017-06-14T07:05:23.687Z,44.40
2017-06-14T07:07:51.260Z,44.50
2017-06-14T07:10:18.780Z,43.20
2017-06-14T07:12:46.399Z,42.50
2017-06-14T07:15:13.908Z,41.10
2017-06-14T07:17:41.412Z,38.80
2017-06-14T07:20:09.244Z,38.80
2017-06-14T07:22:36.762Z,38.00
2017-06-14T07:25:04.270Z,37.80
2017-06-14T07:27:31.933Z,39.60
2017-06-14T07:29:59.441Z,39.10
2017-06-14T07:32:26.975Z,38.60
2017-06-14T07:34:54.534Z,36.70
2017-06-14T07:37:22.038Z,36.80
2017-06-14T07:39:49.552Z,35.10
2017-06-14T07:42:17.135Z,33.10
2017-06-14T07:44:44.643Z,33.30
2017-06-14T07:47:12.151Z,33.20
2017-06-14T07:49:39.727Z,33.50
2017-06-14T07:52:07.219Z,34.60
2017-06-14T07:54:34.813Z,34.30
2017-06-14T07:57:02.668Z,34.60
2017-06-14T07:59:30.198Z,33.40
2017-06-14T08:01:57.699Z,31.90
2017-06-14T08:04:25.254Z,32.50
2017-06-14T08:06:52.756Z,33.10
2017-06-14T08:09:20.310Z,33.70
2017-06-14T08:11:47.895Z,34.10
2017-06-14T08:14:15.404Z,33.70
2017-06-14T08:16:42.908Z,33.60
2017-06-14T08:19:10.469Z,33.80
2017-06-14T08:21:37.967Z,34.00
2017-06-14T08:24:05.478Z,33.80
2017-06-14T08:26:33.043Z,33.10
2017-06-14T08:29:00.547Z,33.90
2017-06-14T08:31:28.086Z,32.70
2017-06-14T08:33:55.872Z,32.10
2017-06-14T08:36:23.494Z,31.80
2017-06-14T08:38:50.995Z,31.00
2017-06-14T08:41:18.707Z,29.00
2017-06-14T08:43:46.485Z,29.80
2017-06-14T08:46:14.116Z,30.00
2017-06-14T08:48:41.705Z,30.00
2017-06-14T08:51:09.327Z,29.60
2017-06-14T08:53:36.889Z,29.40
2017-06-14T08:56:04.524Z,30.30
2017-06-14T08:58:32.027Z,30.50
2017-06-14T09:00:59.787Z,30.00
2017-06-14T09:03:27.384Z,29.30
2017-06-14T09:05:54.893Z,29.20
2017-06-14T09:08:22.400Z,28.40
2017-06-14T09:10:49.964Z,28.30
2017-06-14T09:13:17.554Z,28.80
2017-06-14T09:15:45.058Z,27.80
2017-06-14T09:18:12.971Z,28.60
2017-06-14T09:20:40.475Z,29.50
2017-06-14T09:23:07.975Z,29.00
2017-06-14T09:25:35.531Z,28.10
2017-06-14T09:28:03.480Z,27.40
2017-06-14T09:30:31.077Z,26.50
2017-06-14T09:32:58.624Z,28.00
2017-06-14T09:35:26.319Z,27.90
2017-06-14T09:37:53.819Z,29.60
2017-06-14T09:40:21.378Z,30.90
2017-06-14T09:42:48.884Z,30.20
2017-06-14T09:45:16.393Z,29.80
2017-06-14T09:47:44.007Z,28.40
2017-06-14T09:50:11.554Z,27.70
2017-06-14T09:52:39.059Z,26.60
2017-06-14T09:55:06.631Z,26.00
2017-06-14T09:57:34.167Z,27.00
2017-06-14T10:00:01.707Z,26.00
2017-06-14T10:02:29.268Z,25.60
2017-06-14T10:04:56.811Z,25.60
2017-06-14T10:07:24.532Z,26.30
2017-06-14T10:09:52.223Z,26.00
2017-06-14T10:12:19.799Z,26.30
2017-06-14T10:14:47.300Z,26.80
2017-06-14T10:17:14.855Z,25.80
2017-06-14T10:19:42.384Z,24.80
2017-06-14T10:22:09.951Z,25.60
2017-06-14T10:24:37.447Z,24.60
2017-06-14T10:27:05.216Z,25.80
2017-06-14T10:29:32.833Z,26.10
2017-06-14T10:32:00.338Z,24.70
2017-06-14T10:34:27.899Z,25.20
2017-06-14T10:36:55.408Z,25.40
2017-06-14T10:39:22.906Z,24.50
2017-06-14T10:41:50.523Z,25.60
2017-06-14T10:44:18.051Z,25.70
2017-06-14T10:46:45.563Z,25.90
2017-06-14T10:49:13.136Z,24.30
2017-06-14T10:51:40.749Z,24.70
2017-06-14T10:54:08.553Z,26.70
2017-06-14T10:56:36.185Z,26.40
2017-06-14T10:59:03.703Z,24.90
2017-06-14T11:01:31.207Z,25.00
2017-06-14T11:03:58.875Z,26.30
2017-06-14T11:06:26.374Z,25.00
2017-06-14T11:08:53.883Z,26.00
2017-06-14T11:11:21.447Z,24.70
2017-06-14T11:13:48.955Z,23.90
2017-06-14T11:16:16.460Z,22.10
2017-06-14T11:18:44.308Z,21.00
2017-06-14T11:21:12.423Z,22.30
2017-06-14T11:23:39.988Z,21.60
2017-06-14T11:26:07.555Z,22.60
2017-06-14T11:28:35.055Z,23.80
2017-06-14T11:31:02.563Z,24.50
2017-06-14T11:33:30.246Z,24.80
2017-06-14T11:35:57.786Z,24.70
2017-06-14T11:38:25.295Z,25.10
2017-06-14T11:40:52.839Z,25.10
2017-06-14T11:43:20.340Z,24.70
2017-06-14T11:45:47.837Z,23.80
2017-06-14T11:48:15.416Z,23.20
2017-06-14T11:50:42.931Z,22.20
2017-06-14T11:53:10.447Z,23.30
2017-06-14T11:55:38.015Z,23.40
2017-06-14T11:58:05.616Z,24.20
2017-06-14T12:00:33.120Z,24.60
2017-06-14T12:03:00.711Z,25.20
2017-06-14T12:05:28.215Z,24.20
2017-06-14T12:07:55.723Z,25.00
2017-06-14T12:10:23.291Z,24.30
2017-06-14T12:12:51.015Z,25.20
2017-06-14T12:15:18.535Z,24.60
2017-06-14T12:17:46.039Z,24.70
2017-06-14T12:20:14.211Z,23.90
2017-06-14T12:22:41.716Z,25.00
2017-06-14T12:25:09.267Z,24.00
2017-06-14T12:27:36.976Z,23.90
2017-06-14T12:30:04.487Z,24.80
2017-06-14T12:32:31.995Z,25.60
2017-06-14T12:34:59.567Z,25.20
2017-06-14T12:37:27.071Z,24.30
2017-06-14T12:39:54.579Z,23.40
2017-06-14T12:42:22.226Z,23.70
2017-06-14T12:44:49.785Z,23.80
2017-06-14T12:47:17.288Z,23.60
2017-06-14T12:49:44.851Z,23.30
2017-06-14T12:52:12.357Z,22.70
2017-06-14T12:54:40.249Z,22.80
2017-06-14T12:57:08.047Z,24.00
2017-06-14T12:59:35.552Z,23.40
2017-06-14T13:02:03.059Z,23.40
2017-06-14T13:04:30.624Z,23.70
2017-06-14T13:06:58.139Z,23.70
2017-06-14T13:09:25.643Z,23.60
2017-06-14T13:11:53.217Z,24.80
2017-06-14T13:14:20.719Z,24.80
2017-06-14T13:16:48.227Z,24.00
2017-06-14T13:19:16.558Z,22.30
2017-06-14T13:21:44.294Z,22.30
2017-06-14T13:24:11.794Z,22.60
2017-06-14T13:26:39.382Z,22.80
2017-06-14T13:29:07.007Z,22.70
2017-06-14T13:31:34.512Z,21.90
2017-06-14T13:34:02.230Z,21.60
2017-06-14T13:36:29.735Z,23.00
2017-06-14T13:38:57.247Z,22.60
2017-06-14T13:41:24.819Z,22.00
2017-06-14T13:43:52.402Z,23.20
2017-06-14T13:46:19.907Z,22.40
2017-06-14T13:48:47.552Z,21.40
2017-06-14T13:51:15.074Z,22.00
2017-06-14T13:53:42.575Z,22.20
2017-06-14T13:56:10.128Z,22.50
2017-06-14T13:58:37.640Z,22.60
2017-06-14T14:01:05.143Z,23.90
2017-06-14T14:03:32.754Z,23.30
2017-06-14T14:06:00.268Z,23.50
2017-06-14T14:08:27.782Z,22.60
2017-06-14T14:10:55.333Z,22.60
2017-06-14T14:13:22.918Z,22.00
2017-06-14T14:15:50.420Z,22.40
2017-06-14T14:18:17.997Z,22.20
2017-06-14T14:20:45.504Z,22.40
2017-06-14T14:23:13.011Z,22.40
2017-06-14T14:25:40.552Z,22.40
2017-06-14T14:28:08.075Z,22.60
2017-06-14T14:30:35.624Z,23.80
2017-06-14T14:33:03.231Z,24.00
2017-06-14T14:35:30.735Z,24.80
2017-06-14T14:37:58.317Z,24.10
2017-06-14T14:40:25.876Z,23.80
2017-06-14T14:42:53.395Z,24.00
2017-06-14T14:45:20.926Z,23.80
2017-06-14T14:47:48.827Z,25.50
2017-06-14T14:50:16.334Z,25.20
2017-06-14T14:52:43.840Z,26.40
2017-06-14T14:55:11.423Z,26.10
2017-06-14T14:57:39.037Z,26.50
2017-06-14T15:00:06.599Z,26.40
2017-06-14T15:02:34.155Z,26.00
2017-06-14T15:05:01.653Z,25.60
2017-06-14T15:07:29.159Z,25.80
2017-06-14T15:09:56.764Z,26.90
2017-06-14T15:12:24.271Z,26.20
2017-06-14T15:14:51.779Z,26.20
2017-06-14T15:17:19.357Z,25.90
2017-06-14T15:19:46.956Z,25.60
2017-06-14T15:22:14.464Z,25.30
2017-06-14T15:24:42.016Z,24.90
2017-06-14T15:27:09.532Z,24.90
2017-06-14T15:29:37.040Z,24.80
2017-06-14T15:32:04.663Z,25.20
2017-06-14T15:34:32.183Z,26.00
2017-06-14T15:36:59.689Z,26.50
2017-06-14T15:39:27.344Z,26.80
2017-06-14T15:41:54.879Z,26.30
2017-06-14T15:44:22.379Z,27.20
2017-06-14T15:46:50.005Z,26.80
2017-06-14T15:49:17.520Z,26.40
2017-06-14T15:51:45.075Z,26.80
2017-06-14T15:54:12.650Z,28.00
2017-06-14T15:56:40.159Z,28.20
2017-06-14T15:59:07.666Z,28.20
2017-06-14T16:01:35.229Z,28.50
2017-06-14T16:04:02.731Z,28.60
2017-06-14T16:06:30.275Z,28.80
2017-06-14T16:08:57.819Z,29.40
2017-06-14T16:11:25.321Z,29.50
2017-06-14T16:13:52.824Z,28.00
2017-06-14T16:16:20.391Z,27.50
2017-06-14T16:18:47.964Z,27.40
2017-06-14T16:21:15.467Z,27.60
2017-06-14T16:23:43.011Z,27.20
2017-06-14T16:26:10.515Z,27.30
2017-06-14T16:28:38.020Z,28.00
2017-06-14T16:31:05.762Z,27.80
2017-06-14T16:33:33.334Z,28.00
2017-06-14T16:36:00.839Z,29.00
2017-06-14T16:38:28.450Z,28.90
2017-06-14T16:40:56.215Z,29.50
2017-06-14T16:43:23.730Z,30.00
2017-06-14T16:45:51.307Z,29.40
2017-06-14T16:48:18.818Z,28.40
2017-06-14T16:50:46.328Z,27.40
2017-06-14T16:53:14.014Z,27.60
2017-06-14T16:55:41.522Z,27.60
2017-06-14T16:58:09.023Z,27.80
2017-06-14T17:00:36.697Z,27.50
2017-06-14T17:03:04.268Z,27.40
2017-06-14T17:05:31.800Z,27.10
2017-06-14T17:07:59.663Z,26.80
2017-06-14T17:10:27.275Z,27.30
2017-06-14T17:12:54.792Z,26.70
2017-06-14T17:15:22.419Z,26.70
2017-06-14T17:17:49.926Z,27.50
2017-06-14T17:20:17.458Z,27.70
2017-06-14T17:22:45.068Z,27.90
2017-06-14T17:25:12.627Z,27.70
2017-06-14T17:27:40.147Z,27.90
2017-06-14T17:30:07.795Z,28.10
2017-06-14T17:32:35.307Z,29.40
2017-06-14T17:35:02.885Z,29.60
2017-06-14T17:37:30.627Z,30.70
2017-06-14T17:39:58.191Z,32.30
2017-06-14T17:42:25.686Z,32.50
2017-06-14T17:44:53.260Z,33.00
2017-06-14T17:47:20.770Z,33.60
2017-06-14T17:49:48.305Z,31.80
2017-06-14T17:52:15.948Z,30.30
2017-06-14T17:54:43.459Z,31.70
2017-06-14T17:57:11.003Z,32.30
2017-06-14T17:59:38.652Z,32.60
2017-06-14T18:02:06.319Z,32.90
2017-06-14T18:04:33.824Z,31.50
2017-06-14T18:07:01.456Z,32.00
2017-06-14T18:09:28.982Z,31.70
2017-06-14T18:11:56.520Z,32.10
2017-06-14T18:14:24.104Z,31.70
2017-06-14T18:16:51.648Z,32.10
2017-06-14T18:19:19.183Z,32.50
2017-06-14T18:21:46.804Z,33.40
2017-06-14T18:24:14.333Z,34.20
2017-06-14T18:26:41.909Z,34.10
2017-06-14T18:29:09.459Z,35.50
2017-06-14T18:31:36.965Z,35.70
2017-06-14T18:34:04.528Z,35.60
2017-06-14T18:36:32.107Z,36.60
2017-06-14T18:38:59.620Z,36.30
2017-06-14T18:41:28.040Z,37.00
2017-06-14T18:43:55.624Z,37.30
2017-06-14T18:46:23.121Z,37.70
2017-06-14T18:48:50.651Z,38.60
2017-06-14T18:51:18.240Z,38.80
2017-06-14T18:53:45.779Z,39.20
2017-06-14T18:56:13.319Z,40.00
2017-06-14T18:58:41.153Z,40.90
2017-06-14T19:01:08.764Z,41.80
2017-06-14T19:03:36.288Z,42.50
2017-06-14T19:06:03.928Z,43.10
2017-06-14T19:08:31.435Z,44.30
2017-06-14T19:10:58.939Z,44.40
2017-06-14T19:13:26.808Z,44.80
2017-06-14T19:15:54.383Z,45.40
2017-06-14T19:18:22.004Z,46.20
2017-06-14T19:20:49.591Z,46.90
2017-06-14T19:23:17.147Z,47.30
2017-06-14T19:25:48.637Z,48.20
2017-06-14T19:28:16.208Z,48.40
2017-06-14T19:30:43.731Z,49.10
2017-06-14T19:33:11.321Z,49.60
2017-06-14T19:35:38.867Z,50.00
2017-06-14T19:38:06.379Z,50.20
2017-06-14T19:40:33.886Z,51.20
2017-06-14T19:43:01.507Z,51.60
2017-06-14T19:45:29.030Z,51.80
2017-06-14T19:47:56.958Z,52.10
2017-06-14T19:50:24.692Z,52.30
2017-06-14T19:52:52.201Z,52.30
2017-06-14T19:55:19.718Z,53.30
2017-06-14T19:57:47.287Z,53.10
2017-06-14T20:00:14.852Z,53.20
2017-06-14T20:02:42.396Z,53.30
2017-06-14T20:05:09.981Z,52.20
2017-06-14T20:07:37.499Z,52.50
2017-06-14T20:10:05.013Z,51.00
2017-06-14T20:12:32.642Z,51.20
2017-06-14T20:15:00.147Z,52.30
2017-06-14T20:17:27.733Z,52.20
2017-06-14T20:19:55.315Z,52.90
2017-06-14T20:22:23.220Z,53.20
2017-06-14T20:24:50.935Z,53.10
2017-06-14T20:27:19.235Z,53.50
2017-06-14T20:29:46.734Z,53.20
2017-06-14T20:32:14.255Z,52.60
2017-06-14T20:34:42.052Z,53.50
2017-06-14T20:37:09.561Z,53.00
2017-06-14T20:39:37.086Z,52.90
2017-06-14T20:42:04.647Z,53.20
2017-06-14T20:44:32.846Z,54.00
2017-06-14T20:47:00.382Z,54.10
2017-06-14T20:49:28.023Z,54.90
2017-06-14T20:51:55.538Z,55.20
2017-06-14T20:54:23.055Z,55.60
2017-06-14T20:56:50.675Z,56.60
2017-06-14T20:59:18.247Z,57.20
2017-06-14T21:01:45.823Z,57.50
2017-06-14T21:04:13.404Z,57.50
2017-06-14T21:06:41.007Z,58.00
2017-06-14T21:09:08.515Z,58.40
2017-06-14T21:11:36.167Z,58.90
2017-06-14T21:14:03.683Z,59.10
2017-06-14T21:16:31.260Z,59.70
2017-06-14T21:18:58.807Z,60.20
2017-06-14T21:21:26.357Z,60.00
2017-06-14T21:23:54.031Z,60.30
2017-06-14T21:26:21.591Z,61.60
2017-06-14T21:28:49.095Z,61.70
2017-06-14T21:31:16.609Z,61.00
2017-06-14T21:33:44.160Z,61.70
2017-06-14T21:36:12.009Z,62.50
2017-06-14T21:38:39.598Z,62.80
2017-06-14T21:41:07.158Z,62.70
2017-06-14T21:43:34.695Z,63.40
2017-06-14T21:46:02.210Z,64.00
2017-06-14T21:48:29.753Z,64.00
2017-06-14T21:50:57.363Z,63.60
2017-06-14T21:53:24.903Z,63.80
2017-06-14T21:55:52.459Z,64.50
2017-06-14T21:58:20.044Z,64.80
2017-06-14T22:00:47.607Z,64.50
2017-06-14T22:03:15.490Z,64.70
2017-06-14T22:05:43.020Z,65.20
2017-06-14T22:08:10.536Z,65.40
2017-06-14T22:10:38.171Z,66.40
2017-06-14T22:13:05.700Z,66.70
2017-06-14T22:15:33.250Z,67.00
2017-06-14T22:18:00.804Z,67.00
2017-06-14T22:20:28.314Z,67.90
2017-06-14T22:22:55.859Z,67.80
2017-06-14T22:25:23.435Z,68.00
2017-06-14T22:27:50.952Z,67.80
2017-06-14T22:30:18.454Z,68.50
2017-06-14T22:32:46.097Z,67.90
2017-06-14T22:35:13.604Z,68.30
2017-06-14T22:37:41.113Z,68.80
2017-06-14T22:40:09.047Z,69.00
2017-06-14T22:42:36.551Z,70.00
2017-06-14T22:45:04.050Z,70.00
2017-06-14T22:47:31.670Z,70.10
2017-06-14T22:49:59.195Z,70.00
2017-06-14T22:52:26.720Z,70.40
2017-06-14T22:54:54.300Z,70.90
2017-06-14T22:57:21.804Z,71.00
2017-06-14T22:59:49.398Z,71.20
2017-06-14T23:02:16.951Z,72.00
2017-06-14T23:04:44.459Z,72.80
2017-06-14T23:07:12.019Z,73.00
2017-06-14T23:09:39.672Z,73.50
2017-06-14T23:12:07.183Z,71.90
2017-06-14T23:14:34.795Z,71.90
2017-06-14T23:17:02.651Z,73.00
2017-06-14T23:19:30.235Z,72.90
2017-06-14T23:21:57.771Z,73.00
2017-06-14T23:24:25.400Z,73.20
2017-06-14T23:26:52.913Z,73.90
2017-06-14T23:29:20.433Z,74.80
2017-06-14T23:31:48.037Z,74.00
2017-06-14T23:34:15.556Z,74.20
2017-06-14T23:36:43.112Z,74.00
2017-06-14T23:39:10.741Z,74.50
2017-06-14T23:41:38.253Z,74.70
2017-06-14T23:44:05.875Z,74.50
2017-06-14T23:46:33.431Z,74.80
2017-06-14T23:49:00.991Z,75.10
2017-06-14T23:51:28.500Z,74.70
2017-06-14T23:53:56.065Z,74.10
2017-06-14T23:56:23.743Z,74.60
2017-06-14T23:58:51.281Z,75.00
